sensor_id;sensor_type;location;lat;lon;timestamp;pressure;altitude;pressure_sealevel;temperature;humidity
5679;BME280;2862;52.560;13.566;2024-03-07T00:01:55;101764.41;;;5.81;100.00
5679;BME280;2862;52.560;13.566;2024-03-07T00:11:58;101770.88;;;5.95;100.00
5679;BME280;2862;52.560;13.566;2024-03-07T00:22:03;101770.38;;;5.86;100.00
5679;BME280;2862;52.560;13.566;2024-03-07T00:32:06;101770.50;;;5.83;100.00
5679;BME280;2862;52.560;13.566;2024-03-07T00:42:11;101774.16;;;5.81;100.00
5679;BME280;2862;52.560;13.566;2024-03-07T00:52:14;101767.47;;;5.72;100.00
5679;BME280;2862;52.560;13.566;2024-03-07T01:02:18;101765.19;;;5.65;100.00
5679;BME280;2862;52.560;13.566;2024-03-07T01:12:21;101764.31;;;5.45;100.00
5679;BME280;2862;52.560;13.566;2024-03-07T01:22:27;101763.50;;;5.43;100.00
5679;BME280;2862;52.560;13.566;2024-03-07T01:32:30;101764.31;;;5.45;100.00
5679;BME280;2862;52.560;13.566;2024-03-07T01:42:34;101760.34;;;5.35;100.00
5679;BME280;2862;52.560;13.566;2024-03-07T01:52:39;101761.75;;;5.23;100.00
5679;BME280;2862;52.560;13.566;2024-03-07T02:02:45;101757.03;;;5.10;100.00
5679;BME280;2862;52.560;13.566;2024-03-07T02:12:48;101754.47;;;5.08;100.00
5679;BME280;2862;52.560;13.566;2024-03-07T02:22:52;101749.50;;;5.00;100.00
5679;BME280;2862;52.560;13.566;2024-03-07T02:32:55;101740.63;;;4.81;100.00
5679;BME280;2862;52.560;13.566;2024-03-07T02:43:00;101744.63;;;4.71;100.00
5679;BME280;2862;52.560;13.566;2024-03-07T02:53:05;101733.50;;;4.41;100.00
5679;BME280;2862;52.560;13.566;2024-03-07T03:03:10;101729.78;;;4.24;100.00
5679;BME280;2862;52.560;13.566;2024-03-07T03:13:13;101738.38;;;4.30;100.00
5679;BME280;2862;52.560;13.566;2024-03-07T03:23:18;101746.69;;;4.20;100.00
5679;BME280;2862;52.560;13.566;2024-03-07T03:33:22;101763.75;;;4.13;100.00
5679;BME280;2862;52.560;13.566;2024-03-07T03:43:26;101767.53;;;4.06;100.00
5679;BME280;2862;52.560;13.566;2024-03-07T03:53:31;101763.91;;;3.87;100.00
5679;BME280;2862;52.560;13.566;2024-03-07T04:03:36;101767.22;;;3.92;100.00
5679;BME280;2862;52.560;13.566;2024-03-07T04:13:38;101772.41;;;3.71;100.00
5679;BME280;2862;52.560;13.566;2024-03-07T04:23:43;101773.91;;;3.55;100.00
5679;BME280;2862;52.560;13.566;2024-03-07T04:33:48;101774.44;;;3.41;100.00
5679;BME280;2862;52.560;13.566;2024-03-07T04:43:54;101776.50;;;3.33;100.00
5679;BME280;2862;52.560;13.566;2024-03-07T04:53:57;101779.16;;;3.33;100.00
5679;BME280;2862;52.560;13.566;2024-03-07T05:04:01;101786.00;;;3.39;100.00
5679;BME280;2862;52.560;13.566;2024-03-07T05:14:05;101788.59;;;3.15;100.00
5679;BME280;2862;52.560;13.566;2024-03-07T05:24:09;101802.34;;;3.00;100.00
5679;BME280;2862;52.560;13.566;2024-03-07T05:34:13;101807.69;;;2.99;100.00
5679;BME280;2862;52.560;13.566;2024-03-07T05:44:17;101805.78;;;3.02;100.00
5679;BME280;2862;52.560;13.566;2024-03-07T05:54:21;101821.97;;;2.93;100.00
5679;BME280;2862;52.560;13.566;2024-03-07T06:04:26;101822.19;;;3.60;100.00
5679;BME280;2862;52.560;13.566;2024-03-07T06:14:31;101816.31;;;6.62;100.00
5679;BME280;2862;52.560;13.566;2024-03-07T06:24:35;101821.75;;;8.28;86.05
5679;BME280;2862;52.560;13.566;2024-03-07T06:34:39;101818.28;;;9.34;78.19
5679;BME280;2862;52.560;13.566;2024-03-07T06:44:43;101825.66;;;10.57;69.47
5679;BME280;2862;52.560;13.566;2024-03-07T06:54:46;101834.56;;;10.43;72.82
5679;BME280;2862;52.560;13.566;2024-03-07T07:04:50;101825.84;;;9.84;73.07
5679;BME280;2862;52.560;13.566;2024-03-07T07:14:54;101849.34;;;8.90;75.13
5679;BME280;2862;52.560;13.566;2024-03-07T07:24:59;101859.06;;;8.60;73.29
5679;BME280;2862;52.560;13.566;2024-03-07T07:35:01;101857.47;;;7.92;74.12
5679;BME280;2862;52.560;13.566;2024-03-07T07:45:08;101861.72;;;7.11;76.35
5679;BME280;2862;52.560;13.566;2024-03-07T07:55:12;101859.94;;;7.12;77.21
5679;BME280;2862;52.560;13.566;2024-03-07T08:05:18;101864.44;;;7.27;77.31
5679;BME280;2862;52.560;13.566;2024-03-07T08:15:21;101859.28;;;7.07;77.11
5679;BME280;2862;52.560;13.566;2024-03-07T08:25:27;101858.19;;;7.63;72.84
5679;BME280;2862;52.560;13.566;2024-03-07T08:35:31;101874.16;;;6.75;75.09
5679;BME280;2862;52.560;13.566;2024-03-07T08:45:36;101873.06;;;6.24;77.82
5679;BME280;2862;52.560;13.566;2024-03-07T08:55:39;101867.34;;;6.69;74.48
5679;BME280;2862;52.560;13.566;2024-03-07T09:05:43;101871.00;;;6.85;72.07
5679;BME280;2862;52.560;13.566;2024-03-07T09:15:46;101858.00;;;6.79;71.57
5679;BME280;2862;52.560;13.566;2024-03-07T09:25:51;101857.25;;;7.80;67.70
5679;BME280;2862;52.560;13.566;2024-03-07T09:35:53;101854.75;;;7.43;65.84
5679;BME280;2862;52.560;13.566;2024-03-07T09:45:58;101848.31;;;7.48;61.90
5679;BME280;2862;52.560;13.566;2024-03-07T09:56:03;101848.56;;;7.08;64.21
5679;BME280;2862;52.560;13.566;2024-03-07T10:06:08;101845.19;;;7.22;58.27
5679;BME280;2862;52.560;13.566;2024-03-07T10:16:11;101844.28;;;7.23;57.88
5679;BME280;2862;52.560;13.566;2024-03-07T10:26:16;101839.97;;;7.21;56.35
5679;BME280;2862;52.560;13.566;2024-03-07T10:36:19;101859.16;;;6.74;57.64
5679;BME280;2862;52.560;13.566;2024-03-07T10:46:25;101827.66;;;6.66;55.04
5679;BME280;2862;52.560;13.566;2024-03-07T10:56:39;101843.56;;;6.49;58.68
5679;BME280;2862;52.560;13.566;2024-03-07T11:18:01;101806.41;;;6.66;60.44
5679;BME280;2862;52.560;13.566;2024-03-07T11:28:15;101797.16;;;6.56;62.47
5679;BME280;2862;52.560;13.566;2024-03-07T11:38:30;101784.53;;;6.78;61.91
5679;BME280;2862;52.560;13.566;2024-03-07T11:48:38;101784.09;;;6.69;60.04
5679;BME280;2862;52.560;13.566;2024-03-07T11:58:43;101767.94;;;6.56;58.19
5679;BME280;2862;52.560;13.566;2024-03-07T12:09:04;101764.34;;;6.91;55.31
5679;BME280;2862;52.560;13.566;2024-03-07T12:20:02;101748.06;;;6.63;57.06
5679;BME280;2862;52.560;13.566;2024-03-07T12:30:27;101737.44;;;6.80;55.34
5679;BME280;2862;52.560;13.566;2024-03-07T12:40:36;101729.00;;;6.89;53.60
5679;BME280;2862;52.560;13.566;2024-03-07T12:50:41;101732.97;;;6.98;53.60
5679;BME280;2862;52.560;13.566;2024-03-07T13:00:44;101723.50;;;7.10;52.88
5679;BME280;2862;52.560;13.566;2024-03-07T13:10:48;101711.72;;;7.31;52.34
5679;BME280;2862;52.560;13.566;2024-03-07T13:20:51;101708.25;;;7.13;51.71
5679;BME280;2862;52.560;13.566;2024-03-07T13:30:56;101708.19;;;7.31;50.24
5679;BME280;2862;52.560;13.566;2024-03-07T13:40:59;101703.16;;;7.42;50.55
5679;BME280;2862;52.560;13.566;2024-03-07T13:51:10;101693.19;;;7.30;52.81
5679;BME280;2862;52.560;13.566;2024-03-07T14:01:33;101689.75;;;7.43;52.18
5679;BME280;2862;52.560;13.566;2024-03-07T14:22:48;101675.88;;;7.54;53.10
5679;BME280;2862;52.560;13.566;2024-03-07T14:33:00;101672.34;;;7.54;49.46
5679;BME280;2862;52.560;13.566;2024-03-07T14:43:04;101669.44;;;7.42;48.85
5679;BME280;2862;52.560;13.566;2024-03-07T14:53:09;101653.38;;;7.44;49.65
5679;BME280;2862;52.560;13.566;2024-03-07T15:03:15;101643.44;;;7.48;49.46
5679;BME280;2862;52.560;13.566;2024-03-07T15:13:23;101636.56;;;7.43;50.58
5679;BME280;2862;52.560;13.566;2024-03-07T15:23:27;101624.88;;;7.62;50.26
5679;BME280;2862;52.560;13.566;2024-03-07T15:33:30;101620.16;;;7.67;51.35
5679;BME280;2862;52.560;13.566;2024-03-07T15:43:34;101628.81;;;7.55;52.00
5679;BME280;2862;52.560;13.566;2024-03-07T15:53:39;101621.03;;;7.36;53.83
5679;BME280;2862;52.560;13.566;2024-03-07T16:03:45;101610.78;;;7.28;54.66
5679;BME280;2862;52.560;13.566;2024-03-07T16:13:48;101608.66;;;7.19;56.18
5679;BME280;2862;52.560;13.566;2024-03-07T16:23:53;101608.47;;;7.06;57.60
5679;BME280;2862;52.560;13.566;2024-03-07T16:33:58;101612.81;;;6.91;58.83
5679;BME280;2862;52.560;13.566;2024-03-07T16:44:02;101610.50;;;6.68;60.33
5679;BME280;2862;52.560;13.566;2024-03-07T16:54:05;101612.34;;;6.50;60.80
5679;BME280;2862;52.560;13.566;2024-03-07T17:04:11;101620.22;;;6.52;61.11
5679;BME280;2862;52.560;13.566;2024-03-07T17:14:16;101620.72;;;6.25;62.21
5679;BME280;2862;52.560;13.566;2024-03-07T17:24:20;101629.44;;;6.10;63.08
5679;BME280;2862;52.560;13.566;2024-03-07T17:34:23;101626.56;;;5.97;64.18
5679;BME280;2862;52.560;13.566;2024-03-07T17:44:29;101625.06;;;5.92;64.43
5679;BME280;2862;52.560;13.566;2024-03-07T17:54:32;101634.06;;;5.88;64.89
5679;BME280;2862;52.560;13.566;2024-03-07T18:04:39;101630.25;;;5.57;66.00
5679;BME280;2862;52.560;13.566;2024-03-07T18:14:47;101630.94;;;5.60;66.29
5679;BME280;2862;52.560;13.566;2024-03-07T18:24:58;101633.47;;;5.45;66.92
5679;BME280;2862;52.560;13.566;2024-03-07T18:35:02;101635.28;;;5.25;67.42
5679;BME280;2862;52.560;13.566;2024-03-07T18:45:11;101643.66;;;5.16;67.78
5679;BME280;2862;52.560;13.566;2024-03-07T18:55:20;101637.09;;;5.04;68.65
5679;BME280;2862;52.560;13.566;2024-03-07T19:05:36;101638.81;;;4.87;69.47
5679;BME280;2862;52.560;13.566;2024-03-07T19:16:24;101641.22;;;4.72;69.33
5679;BME280;2862;52.560;13.566;2024-03-07T19:26:48;101649.63;;;4.62;69.21
5679;BME280;2862;52.560;13.566;2024-03-07T19:36:56;101638.53;;;4.53;69.23
5679;BME280;2862;52.560;13.566;2024-03-07T19:47:11;101646.25;;;4.38;69.87
5679;BME280;2862;52.560;13.566;2024-03-07T19:57:18;101648.25;;;4.33;70.46
5679;BME280;2862;52.560;13.566;2024-03-07T20:07:22;101648.09;;;4.15;71.50
5679;BME280;2862;52.560;13.566;2024-03-07T20:17:26;101646.75;;;4.05;72.70
5679;BME280;2862;52.560;13.566;2024-03-07T20:27:30;101641.28;;;3.88;74.07
5679;BME280;2862;52.560;13.566;2024-03-07T20:37:34;101639.88;;;3.79;74.78
5679;BME280;2862;52.560;13.566;2024-03-07T20:47:40;101638.47;;;3.70;75.42
5679;BME280;2862;52.560;13.566;2024-03-07T20:57:45;101639.94;;;3.56;76.20
5679;BME280;2862;52.560;13.566;2024-03-07T21:07:51;101638.69;;;3.42;77.18
5679;BME280;2862;52.560;13.566;2024-03-07T21:17:54;101642.25;;;3.41;77.41
5679;BME280;2862;52.560;13.566;2024-03-07T21:27:59;101645.19;;;3.34;78.02
5679;BME280;2862;52.560;13.566;2024-03-07T21:38:02;101637.31;;;3.32;78.50
5679;BME280;2862;52.560;13.566;2024-03-07T21:48:08;101621.44;;;3.32;78.24
5679;BME280;2862;52.560;13.566;2024-03-07T21:58:11;101617.38;;;3.24;78.75
5679;BME280;2862;52.560;13.566;2024-03-07T22:08:16;101617.69;;;3.16;79.59
5679;BME280;2862;52.560;13.566;2024-03-07T22:18:20;101630.69;;;3.22;79.46
5679;BME280;2862;52.560;13.566;2024-03-07T22:28:24;101621.53;;;3.07;80.75
5679;BME280;2862;52.560;13.566;2024-03-07T22:38:29;101611.06;;;2.81;82.24
5679;BME280;2862;52.560;13.566;2024-03-07T22:48:36;101611.75;;;2.86;81.74
5679;BME280;2862;52.560;13.566;2024-03-07T22:58:42;101599.72;;;2.79;81.83
5679;BME280;2862;52.560;13.566;2024-03-07T23:08:46;101592.06;;;2.71;82.20
5679;BME280;2862;52.560;13.566;2024-03-07T23:18:49;101589.69;;;2.63;82.62
5679;BME280;2862;52.560;13.566;2024-03-07T23:28:54;101584.06;;;2.49;83.57
5679;BME280;2862;52.560;13.566;2024-03-07T23:38:57;101577.66;;;2.31;84.48
5679;BME280;2862;52.560;13.566;2024-03-07T23:49:01;101571.22;;;1.89;87.76
5679;BME280;2862;52.560;13.566;2024-03-07T23:59:04;101562.78;;;1.79;89.08
